createdAt,value
2022-09-23T00:05:00.734Z,13.87
2022-09-23T00:10:01.910Z,13.91
2022-09-23T00:15:04.000Z,12.87
2022-09-23T00:20:08.454Z,11.13
2022-09-23T00:25:10.665Z,10.68
2022-09-23T00:30:11.983Z,11.64
2022-09-23T00:35:13.046Z,12.10
2022-09-23T00:40:14.821Z,12.36
2022-09-23T00:45:16.490Z,12.35
2022-09-23T00:50:29.396Z,12.61
2022-09-23T00:55:43.329Z,12.80
2022-09-23T01:00:46.053Z,12.88
2022-09-23T01:05:47.772Z,12.96
2022-09-23T01:11:15.709Z,13.12
2022-09-23T01:16:54.738Z,13.42
2022-09-23T01:22:18.772Z,13.69
2022-09-23T01:27:28.762Z,13.80
2022-09-23T01:32:58.815Z,13.72
2022-09-23T01:38:30.915Z,13.57
2022-09-23T01:43:54.078Z,13.82
2022-09-23T01:49:16.891Z,13.92
2022-09-23T01:54:27.991Z,13.96
2022-09-23T01:59:39.392Z,13.97
2022-09-23T02:05:07.420Z,13.88
2022-09-23T02:10:23.323Z,13.82
2022-09-23T02:15:29.534Z,13.08
2022-09-23T02:20:36.001Z,11.22
2022-09-23T02:25:53.610Z,10.79
2022-09-23T02:31:23.159Z,11.88
2022-09-23T02:36:31.559Z,12.50
2022-09-23T02:41:33.971Z,12.81
2022-09-23T02:46:36.292Z,13.02
2022-09-23T02:51:38.904Z,13.13
2022-09-23T02:56:41.119Z,13.18
2022-09-23T03:01:53.611Z,13.20
2022-09-23T03:07:00.699Z,13.27
2022-09-23T03:12:39.351Z,12.99
2022-09-23T03:17:49.179Z,11.00
2022-09-23T03:23:00.172Z,10.46
2022-09-23T03:28:03.197Z,11.59
2022-09-23T03:33:08.508Z,12.17
2022-09-23T03:38:16.568Z,12.46
2022-09-23T03:43:18.013Z,12.64
2022-09-23T03:48:21.408Z,12.85
2022-09-23T03:53:22.651Z,12.84
2022-09-23T03:58:23.743Z,11.22
2022-09-23T04:03:27.338Z,9.82
2022-09-23T04:08:28.713Z,9.78
2022-09-23T04:13:30.620Z,11.05
2022-09-23T04:18:31.863Z,11.66
2022-09-23T04:23:33.008Z,12.03
2022-09-23T04:28:34.487Z,12.34
2022-09-23T04:33:36.992Z,12.66
2022-09-23T04:38:38.234Z,12.89
2022-09-23T04:43:39.534Z,13.11
2022-09-23T04:48:42.368Z,13.26
2022-09-23T04:53:45.551Z,12.26
2022-09-23T04:58:47.378Z,10.69
2022-09-23T05:03:48.560Z,10.47
2022-09-23T05:08:50.705Z,11.49
2022-09-23T05:13:53.832Z,12.16
2022-09-23T05:18:55.133Z,12.61
2022-09-23T05:23:59.797Z,12.78
2022-09-23T05:29:04.902Z,12.94
2022-09-23T05:34:06.368Z,13.36
2022-09-23T05:39:08.050Z,13.73
2022-09-23T05:44:09.933Z,13.34
2022-09-23T05:49:11.374Z,11.85
2022-09-23T05:54:13.850Z,11.72
2022-09-23T05:59:15.235Z,13.29
2022-09-23T06:04:16.389Z,14.31
2022-09-23T06:09:18.534Z,14.78
2022-09-23T06:14:19.783Z,13.42
2022-09-23T06:19:21.020Z,12.88
2022-09-23T06:24:27.251Z,14.27
2022-09-23T06:29:32.526Z,14.94
2022-09-23T06:34:44.737Z,13.73
2022-09-23T06:39:48.574Z,13.31
2022-09-23T06:44:49.749Z,14.65
2022-09-23T06:49:50.963Z,15.04
2022-09-23T06:54:52.559Z,13.74
2022-09-23T06:59:53.782Z,13.49
2022-09-23T07:04:56.681Z,15.06
2022-09-23T07:09:58.090Z,15.69
2022-09-23T07:14:59.474Z,14.66
2022-09-23T07:20:01.332Z,14.81
2022-09-23T07:25:03.351Z,16.07
2022-09-23T07:30:06.061Z,15.42
2022-09-23T07:35:10.564Z,15.43
2022-09-23T07:40:12.250Z,16.43
2022-09-23T07:45:14.387Z,15.69
2022-09-23T07:50:15.685Z,15.94
2022-09-23T07:55:21.030Z,17.22
2022-09-23T08:00:22.460Z,16.41
2022-09-23T08:05:25.248Z,15.76
2022-09-23T08:10:26.568Z,15.44
2022-09-23T08:15:31.265Z,16.08
2022-09-23T08:20:51.606Z,17.69
2022-09-23T08:25:59.641Z,17.02
2022-09-23T08:31:01.680Z,16.06
2022-09-23T08:36:03.280Z,15.29
2022-09-23T08:41:15.537Z,15.34
2022-09-23T08:46:24.182Z,16.85
2022-09-23T08:51:32.910Z,17.69
2022-09-23T08:56:38.023Z,17.27
2022-09-23T09:01:43.041Z,16.18
2022-09-23T09:06:53.590Z,15.67
2022-09-23T09:12:02.571Z,15.36
2022-09-23T09:17:13.094Z,15.05
2022-09-23T09:22:48.708Z,15.59
2022-09-23T09:27:51.307Z,17.40
2022-09-23T09:33:06.058Z,17.60
2022-09-23T09:38:07.653Z,16.65
2022-09-23T09:43:09.960Z,16.06
2022-09-23T09:48:17.003Z,15.76
2022-09-23T09:53:25.725Z,15.56
2022-09-23T09:58:33.396Z,15.43
2022-09-23T10:03:40.671Z,15.40
2022-09-23T10:08:48.654Z,16.01
2022-09-23T10:14:12.240Z,17.76
2022-09-23T10:19:25.462Z,18.05
2022-09-23T10:24:36.350Z,17.47
2022-09-23T10:29:58.125Z,17.39
2022-09-23T10:35:13.879Z,17.56
2022-09-23T10:40:54.937Z,17.37
2022-09-23T10:46:20.922Z,16.78
2022-09-23T10:51:31.370Z,16.31
2022-09-23T10:56:38.873Z,16.01
2022-09-23T11:02:01.358Z,15.87
2022-09-23T11:07:08.727Z,15.98
2022-09-23T11:12:31.645Z,16.21
2022-09-23T11:18:10.450Z,16.51
2022-09-23T11:23:25.806Z,16.62
2022-09-23T11:28:47.789Z,16.52
2022-09-23T11:34:24.749Z,16.43
2022-09-23T11:39:30.366Z,16.15
2022-09-23T11:44:38.566Z,15.89
2022-09-23T11:50:02.025Z,15.52
2022-09-23T11:55:22.208Z,15.10
2022-09-23T12:00:28.928Z,14.76
2022-09-23T12:05:41.176Z,14.52
2022-09-23T12:10:55.324Z,14.28
2022-09-23T12:16:15.407Z,14.10
2022-09-23T12:27:05.462Z,13.88
2022-09-23T12:32:09.214Z,14.55
2022-09-23T12:37:10.567Z,16.57
2022-09-23T12:42:17.677Z,17.24
2022-09-23T12:47:27.289Z,16.31
2022-09-23T12:52:31.853Z,15.78
2022-09-23T12:57:33.061Z,15.58
2022-09-23T13:02:39.012Z,15.58
2022-09-23T13:07:46.493Z,15.62
2022-09-23T13:12:47.961Z,15.62
2022-09-23T13:17:49.587Z,15.66
2022-09-23T13:22:53.399Z,15.66
2022-09-23T13:27:58.257Z,15.64
2022-09-23T13:33:22.335Z,15.64
2022-09-23T13:38:26.670Z,15.61
2022-09-23T13:43:41.249Z,15.78
2022-09-23T13:48:45.543Z,16.22
2022-09-23T13:53:55.530Z,16.40
2022-09-23T13:59:25.207Z,16.62
2022-09-23T14:04:26.733Z,16.71
2022-09-23T14:09:29.985Z,16.58
2022-09-23T14:14:36.501Z,16.45
2022-09-23T14:19:41.749Z,16.55
2022-09-23T14:24:43.089Z,16.59
2022-09-23T14:29:47.459Z,16.59
2022-09-23T14:34:54.134Z,16.44
2022-09-23T14:39:57.817Z,16.24
2022-09-23T14:44:59.513Z,16.04
2022-09-23T14:50:19.950Z,15.80
2022-09-23T14:55:21.245Z,15.54
2022-09-23T15:00:22.699Z,15.27
2022-09-23T15:05:44.978Z,14.97
2022-09-23T15:10:48.297Z,14.74
2022-09-23T15:15:54.644Z,14.63
2022-09-23T15:21:16.065Z,14.54
2022-09-23T15:26:23.324Z,14.48
2022-09-23T15:31:26.989Z,14.46
2022-09-23T15:36:28.673Z,14.42
2022-09-23T15:41:32.439Z,14.37
2022-09-23T15:46:36.728Z,14.31
2022-09-23T15:51:40.208Z,14.24
2022-09-23T15:56:41.505Z,14.83
2022-09-23T16:01:44.568Z,16.58
2022-09-23T16:06:47.654Z,17.50
2022-09-23T16:11:50.863Z,17.58
2022-09-23T16:16:52.886Z,16.40
2022-09-23T16:21:55.652Z,15.58
2022-09-23T16:27:00.012Z,15.00
2022-09-23T16:32:02.437Z,15.18
2022-09-23T16:37:15.936Z,16.74
2022-09-23T16:42:17.284Z,17.71
2022-09-23T16:47:19.646Z,18.30
2022-09-23T16:52:21.855Z,17.87
2022-09-23T16:57:23.065Z,16.39
2022-09-23T17:02:43.430Z,15.48
2022-09-23T17:07:48.163Z,15.51
2022-09-23T17:12:49.984Z,16.74
2022-09-23T17:17:52.247Z,17.46
2022-09-23T17:22:55.059Z,17.97
2022-09-23T17:28:00.284Z,17.72
2022-09-23T17:33:01.500Z,16.18
2022-09-23T17:38:04.008Z,15.13
2022-09-23T17:43:07.422Z,15.23
2022-09-23T17:48:08.657Z,16.36
2022-09-23T17:53:11.582Z,16.87
2022-09-23T17:58:12.892Z,17.28
2022-09-23T18:03:16.645Z,17.68
2022-09-23T18:08:20.988Z,17.94
2022-09-23T18:13:25.344Z,17.21
2022-09-23T18:18:28.116Z,15.84
2022-09-23T18:23:29.644Z,14.97
2022-09-23T18:28:34.810Z,15.01
2022-09-23T18:33:38.719Z,16.31
2022-09-23T18:38:42.235Z,16.98
2022-09-23T18:43:48.655Z,17.25
2022-09-23T18:49:17.429Z,17.50
2022-09-23T18:54:19.194Z,17.90
2022-09-23T18:59:25.129Z,17.60
2022-09-23T19:04:28.242Z,16.08
2022-09-23T19:09:29.550Z,15.67
2022-09-23T19:14:30.805Z,16.76
2022-09-23T19:19:33.090Z,17.33
2022-09-23T19:24:35.539Z,17.63
2022-09-23T19:29:39.897Z,17.82
2022-09-23T19:34:41.228Z,17.09
2022-09-23T19:39:43.571Z,15.48
2022-09-23T19:44:44.784Z,15.04
2022-09-23T19:49:46.751Z,16.08
2022-09-23T19:54:48.119Z,16.70
2022-09-23T19:59:49.912Z,17.06
2022-09-23T20:04:52.839Z,17.33
2022-09-23T20:09:55.733Z,17.56
2022-09-23T20:14:56.948Z,17.20
2022-09-23T20:19:58.596Z,15.79
2022-09-23T20:25:03.209Z,14.79
2022-09-23T20:30:06.694Z,14.71
2022-09-23T20:35:08.169Z,15.87
2022-09-23T20:40:10.929Z,16.38
2022-09-23T20:45:12.671Z,16.51
2022-09-23T20:50:14.189Z,16.69
2022-09-23T20:55:16.543Z,16.82
2022-09-23T21:00:18.021Z,17.00
2022-09-23T21:05:19.535Z,16.94
2022-09-23T21:10:22.115Z,17.25
2022-09-23T21:15:23.800Z,17.46
2022-09-23T21:20:25.265Z,17.54
2022-09-23T21:25:28.881Z,17.59
2022-09-23T21:30:30.856Z,17.09
2022-09-23T21:35:33.289Z,15.45
2022-09-23T21:40:53.008Z,14.94
2022-09-23T21:46:02.592Z,15.99
2022-09-23T21:51:08.643Z,16.53
2022-09-23T21:56:20.921Z,16.83
2022-09-23T22:01:24.522Z,17.11
2022-09-23T22:06:27.914Z,16.80
2022-09-23T22:11:50.047Z,15.34
2022-09-23T22:16:56.626Z,14.24
2022-09-23T22:21:57.999Z,14.10
2022-09-23T22:26:59.218Z,15.26
2022-09-23T22:32:20.508Z,15.85
2022-09-23T22:37:26.529Z,16.16
2022-09-23T22:42:28.531Z,16.38
2022-09-23T22:47:31.422Z,15.94
2022-09-23T22:52:32.675Z,14.41
2022-09-23T22:57:33.992Z,13.97
2022-09-23T23:02:36.105Z,14.98
2022-09-23T23:07:37.366Z,15.69
2022-09-23T23:12:39.548Z,15.91
2022-09-23T23:17:42.478Z,16.03
2022-09-23T23:22:43.656Z,16.24
2022-09-23T23:27:44.754Z,15.78
2022-09-23T23:32:45.998Z,14.18
2022-09-23T23:37:47.635Z,13.05
2022-09-23T23:42:48.777Z,12.93
2022-09-23T23:47:49.938Z,14.07
2022-09-23T23:52:50.963Z,14.75
2022-09-23T23:57:52.158Z,15.14
